Strona główna
METAR-TAF:

METAR-TAF

Lotnisko :

Morristown, New Jersey, Stany Zjednoczone

Szerokość geograficzna: 40-48N, Długość geograficzna: 074-25W, wysokość: 57 m

Aktualna obserwacja pogody

Raport powstał 39 minut temu, godzina 21:45 UTC
Cisza
Temperatura 0°C
Wilgotność 69%
Ciśnienie 1030 hPa
Widzialność: 16.1 km
Przerywane chmury na wysokości 20000 ft

METAR: KMMU 082145Z 00000KT 10SM BKN200 00/M05 A3042

czas: 17:24 (22:24 UTC)


TAF: brakujący

Obserwacja i prognoza pogody dla ponad 4000 lotnisk (raport METAR i TAF).

Dostępne stacje oznaczono żółtymi i czerwonymi punktami na mapie.

Najedź kursorem aby zobaczyć nazwę stacji.

Kliknij aby zobaczyć obserwacje i prognozy pogody.

Aby zmienić mapę: kliknij na zielony przycisk z czarnym krzyżykiem, aby powiększyć; na zielony przycisk z myślnikiem, aby pomniejszyć; na zielone strzałki, aby przejść do map sąsiednich.


METAR-TAF: